Date,TemperatureHighF,TemperatureAvgF,TemperatureLowF,DewpointHighF,DewpointAvgF,DewpointLowF,HumidityHigh,HumidityAvg,HumidityLow,PressureMaxIn,PressureMinIn,WindSpeedMaxMPH,WindSpeedAvgMPH,GustSpeedMaxMPH,PrecipitationSumIn
2012-1-1,44,37,32,41,34,30,94,87,73,29.98,29.69,12,6,22,0.01
2012-1-2,47,43,35,45,34,21,94,74,53,29.70,29.37,15,10,26,0.08
2012-1-3,34,22,8,22,7,-5,68,51,37,29.92,29.56,17,10,28,0.04
2012-1-4,25,13,5,10,-3,-6,63,49,34,29.97,29.83,15,8,28,0.00
2012-1-5,32,26,21,22,13,6,67,56,44,29.83,29.62,13,6,20,0.00
2012-1-6,38,25,16,36,18,7,94,75,56,29.93,29.70,8,4,15,0.03
2012-1-7,38,33,28,36,31,26,94,92,90,29.75,29.60,6,2,10,0.03
2012-1-8,41,34,27,30,22,12,92,65,43,30.16,29.80,15,7,24,0.00
2012-1-9,32,25,15,23,12,3,76,59,36,30.22,29.90,10,4,18,0.00
2012-1-10,39,35,27,35,26,7,90,70,42,29.91,29.62,14,7,26,0.03
2012-1-11,28,20,13,10,1,-7,68,45,26,30.17,29.82,16,7,27,0.01
2012-1-12,34,28,21,32,23,5,94,81,47,30.17,29.41,16,9,32,0.00
2012-1-13,47,34,26,46,29,20,96,85,59,29.51,29.04,23,9,40,0.76
2012-1-14,33,23,5,24,10,-8,69,58,42,29.91,29.26,19,12,39,0.01
2012-1-15,11,4,-2,-6,-10,-12,65,53,36,30.33,29.91,15,9,28,0.00
2012-1-16,36,16,3,26,4,-8,71,58,40,30.47,30.01,19,7,36,0.00
2012-1-17,42,34,31,41,29,24,95,82,67,30.02,29.39,18,6,33,0.21
2012-1-18,44,32,14,42,20,-2,95,63,41,30.03,29.28,23,14,38,0.22
2012-1-19,21,15,6,14,2,-4,75,57,36,30.30,30.03,13,5,23,0.00
2012-1-20,33,24,11,31,18,2,93,78,65,30.18,29.81,15,8,26,0.01
2012-1-21,14,10,5,8,3,-3,80,73,62,30.29,30.15,11,5,18,0.01
2012-1-22,22,12,1,10,4,-5,81,71,53,30.53,30.29,8,3,12,0.02
2012-1-23,45,34,16,42,30,10,94,84,72,30.48,29.92,15,6,27,0.20
2012-1-24,49,44,37,48,43,34,95,94,92,29.93,29.77,18,6,32,0.44
2012-1-25,39,34,28,35,23,16,91,66,51,30.08,29.87,14,8,28,0.01
2012-1-26,36,30,25,22,14,8,71,51,35,30.14,30.03,15,7,23,0.01
2012-1-27,43,36,32,42,33,18,95,89,56,30.03,29.13,16,8,34,1.35
2012-1-28,40,35,29,34,27,23,95,73,53,29.89,29.27,20,9,35,0.25
2012-1-29,40,36,33,33,20,11,77,54,33,29.91,29.69,18,10,34,0.00
2012-1-30,34,29,20,25,14,-2,86,55,28,30.19,29.87,17,8,29,0.00
2012-1-31,33,23,18,27,14,3,92,70,47,30.24,29.98,8,4,15,0.00
2012-2-1,40,33,27,39,31,22,95,93,91,29.98,29.67,9,4,13,0.15
2012-2-2,27,24,20,23,20,14,91,85,80,30.13,29.83,14,7,23,0.05
2012-2-3,30,22,13,17,11,8,82,65,40,30.25,30.13,14,7,21,0.01
2012-2-4,32,25,17,17,12,7,83,58,36,30.14,30.01,16,7,27,0.01
2012-2-5,28,21,10,13,6,2,76,54,33,30.09,29.90,13,6,19,0.00
2012-2-6,41,34,26,31,22,14,88,63,46,29.91,29.67,11,6,19,0.00
2012-2-7,43,34,19,28,19,2,78,55,37,30.15,29.75,14,7,27,0.00
2012-2-8,33,24,11,22,10,0,68,55,33,30.23,29.97,10,5,23,0.00
2012-2-9,40,31,25,22,17,6,82,59,24,29.97,29.86,9,4,13,0.00
2012-2-10,43,35,21,36,27,15,91,74,53,30.02,29.79,11,6,21,0.00
2012-2-11,40,31,16,33,27,10,93,86,69,29.79,29.40,18,8,29,0.08
2012-2-12,20,12,4,11,-2,-13,79,56,39,29.72,29.39,19,13,31,0.01
2012-2-13,27,19,6,9,3,-8,70,50,39,29.91,29.68,19,10,30,0.01
2012-2-14,39,28,13,26,20,6,86,71,52,30.06,29.90,9,4,17,0.01
2012-2-15,41,34,29,32,28,25,92,77,55,30.16,30.06,3,1,6,0.01
2012-2-16,44,35,30,32,28,25,93,75,47,30.20,30.00,7,2,11,0.00
2012-2-17,40,38,32,38,35,30,94,93,88,30.01,29.73,8,4,17,0.14
2012-2-18,42,35,31,31,23,17,93,63,40,29.81,29.69,18,9,29,0.01
2012-2-19,39,32,26,19,12,6,64,46,27,29.94,29.80,18,9,28,0.01
2012-2-20,33,26,19,14,8,2,66,46,27,30.18,29.92,18,9,29,0.00
2012-2-21,37,28,16,31,16,9,82,61,38,30.25,29.87,11,6,22,0.02
2012-2-22,44,39,34,39,36,31,95,88,77,29.87,29.48,10,4,20,0.10
2012-2-23,44,40,33,41,36,25,94,85,72,29.62,29.22,14,7,25,0.43
2012-2-24,39,35,30,34,28,25,93,78,59,29.76,29.11,13,5,27,0.48
2012-2-25,41,35,30,36,27,18,94,75,60,29.45,28.83,19,12,35,1.00
2012-2-26,34,28,21,18,8,2,60,44,27,30.34,29.47,22,14,38,0.01
2012-2-27,40,26,13,38,16,3,94,65,40,30.42,29.90,11,4,19,0.07
2012-2-28,37,28,20,35,19,11,93,70,41,30.33,29.90,19,9,33,0.07
2012-2-29,33,25,13,20,12,5,84,61,31,30.33,30.07,10,4,19,0.00
2012-3-1,27,23,17,21,18,12,87,80,64,30.07,29.91,16,11,30,0.00
2012-3-2,31,23,13,23,16,9,84,76,56,30.11,30.01,15,6,25,0.20
2012-3-3,42,36,27,41,33,23,95,90,78,30.01,29.21,14,7,25,0.93
2012-3-4,40,34,26,34,28,23,94,80,61,29.59,29.40,8,3,15,0.01
2012-3-5,30,25,17,27,16,5,91,69,40,30.18,29.45,13,8,22,0.02
2012-3-6,31,22,12,14,7,2,71,52,34,30.50,30.18,12,6,21,0.01
2012-3-7,44,36,19,37,28,9,87,73,56,30.50,30.10,14,6,28,0.00
2012-3-8,53,48,41,44,41,34,84,76,69,30.10,29.57,19,12,44,0.00
2012-3-9,49,37,25,45,23,8,92,60,28,30.10,29.52,22,10,40,0.43
2012-3-10,37,29,22,19,13,5,76,52,26,30.45,30.10,12,5,18,0.01
2012-3-11,43,38,25,34,26,-100,87,64,47,30.44,30.14,16,7,30,0.00
2012-3-12,58,44,34,36,32,30,93,67,35,30.16,30.09,10,5,15,0.00
2012-3-13,47,42,37,42,37,30,93,85,74,30.10,29.88,13,6,21,0.00
2012-3-14,37,34,31,35,32,29,94,93,91,30.21,29.97,13,8,21,0.02
2012-3-15,37,32,29,29,27,25,92,80,66,30.33,30.21,13,7,21,0.03
2012-3-16,36,34,31,34,30,27,94,87,76,30.30,30.06,6,2,9,0.28
2012-3-17,54,43,35,38,33,27,94,73,37,30.28,30.09,9,4,17,0.10
2012-3-18,55,47,37,43,40,33,89,78,62,30.26,30.00,11,7,18,0.00
2012-3-19,62,48,37,46,39,32,92,72,43,30.28,29.98,13,6,24,0.00
2012-3-20,59,46,35,45,38,-100,91,77,59,30.28,30.12,7,4,13,0.00
2012-3-21,76,58,42,53,47,40,92,69,45,30.21,30.09,8,4,12,0.00
2012-3-22,74,59,44,51,47,-100,93,67,44,30.09,29.86,10,-2,18,0.00
2012-3-23,65,56,45,49,25,8,69,35,11,30.01,29.85,21,10,36,0.00
2012-3-24,52,41,31,32,18,8,74,42,17,30.12,29.99,11,6,18,0.00
2012-3-25,43,39,36,39,35,31,93,86,72,30.00,29.66,8,4,16,0.12
2012-3-26,38,34,26,36,23,4,94,67,36,29.79,29.50,23,11,35,0.04
2012-3-27,41,30,21,9,2,-7,52,31,14,30.05,29.78,22,14,37,0.01
2012-3-28,40,34,30,33,20,0,93,61,25,30.05,29.57,11,6,18,0.25
2012-3-29,36,33,32,32,31,29,94,90,82,29.75,29.54,11,7,22,0.45
2012-3-30,43,34,29,30,21,13,88,62,35,29.97,29.74,21,10,31,0.01
2012-3-31,45,34,24,27,19,13,84,56,31,29.98,29.82,13,5,20,0.00
2012-4-1,46,36,25,33,26,16,91,69,31,29.82,29.62,11,4,16,0.00
2012-4-2,46,38,33,37,29,12,83,70,36,29.65,29.55,11,4,16,0.02
2012-4-3,54,40,30,24,16,10,47,38,27,29.69,29.58,18,10,29,0.02
2012-4-4,53,43,35,29,24,20,63,49,30,29.59,29.34,15,8,25,0.00
2012-4-5,46,39,33,28,23,19,73,54,35,29.76,29.46,19,10,29,0.00
2012-4-6,47,37,29,29,21,15,74,53,28,29.87,29.76,14,8,23,0.00
2012-4-7,46,39,29,23,18,14,61,45,31,29.90,29.85,17,8,25,0.00
2012-4-8,39,36,32,35,29,21,90,74,55,29.87,29.48,11,7,21,0.15
2012-4-9,47,42,37,43,38,35,94,87,75,29.49,29.32,10,4,23,0.43
2012-4-10,51,44,36,37,35,32,92,71,52,29.67,29.45,10,5,22,0.04
2012-4-11,55,43,31,41,36,29,94,76,42,29.79,29.66,9,3,15,0.00
2012-4-12,52,44,39,45,39,37,93,82,61,29.99,29.78,13,6,24,0.13
2012-4-13,55,45,36,40,33,25,94,66,31,30.04,29.91,11,5,22,0.08
2012-4-14,65,50,37,35,29,21,74,48,22,30.00,29.87,13,7,24,0.00
2012-4-15,61,49,42,45,40,-100,93,72,43,29.93,29.84,9,4,16,0.00
2012-4-16,58,49,42,49,44,40,94,86,68,29.98,29.88,9,5,16,0.00
2012-4-17,70,52,46,54,46,37,95,84,51,30.03,29.85,10,4,19,0.00
2012-4-18,58,49,40,37,31,27,79,51,35,30.16,30.03,13,6,22,0.00
2012-4-19,51,44,33,41,38,30,93,80,64,30.09,29.97,12,6,18,0.00
2012-4-20,57,50,40,47,44,38,94,81,64,29.97,29.87,11,6,22,0.00
2012-4-21,50,48,46,48,45,40,95,88,71,29.88,29.71,11,5,22,0.02
2012-4-22,48,42,37,47,40,-100,95,94,90,29.90,29.67,16,9,30,0.26
2012-4-23,56,48,37,55,46,35,95,94,93,29.84,29.39,22,14,47,1.78
2012-4-24,52,48,44,48,44,40,95,87,66,29.70,29.39,15,7,26,0.29
2012-4-25,54,48,41,44,39,35,91,73,53,29.76,29.70,11,7,21,0.01
2012-4-26,55,46,35,41,36,31,88,70,42,29.85,29.62,11,6,19,0.00
2012-4-27,50,46,37,49,40,24,95,81,57,29.74,29.31,20,9,39,0.66
2012-4-28,48,40,32,24,19,15,62,44,27,30.01,29.74,18,12,32,0.01
2012-4-29,52,42,32,22,14,-100,60,35,17,30.07,29.85,19,9,31,0.00
2012-4-30,55,43,32,36,25,13,79,51,32,30.20,30.07,12,7,20,0.00
2012-5-1,46,42,40,41,38,35,93,86,77,30.23,30.15,9,6,17,0.59
2012-5-2,47,43,40,43,40,38,94,89,81,30.24,30.13,8,4,15,0.05
2012-5-3,52,46,41,43,41,39,94,81,71,30.19,30.04,7,2,12,0.00
2012-5-4,47,45,43,45,43,40,94,92,85,30.04,29.93,7,3,12,0.33
2012-5-5,56,48,41,51,46,39,95,92,81,30.05,29.91,5,2,10,0.09
2012-5-6,62,48,38,42,34,-100,94,65,26,30.09,29.99,11,5,18,0.02
2012-5-7,63,50,36,40,34,25,87,59,25,30.09,30.03,10,5,17,0.00
2012-5-8,51,45,35,46,41,33,93,86,70,30.07,29.87,14,6,25,0.71
2012-5-9,52,50,46,51,48,44,95,94,93,29.87,29.58,19,5,31,0.89
2012-5-10,59,52,49,55,50,46,95,91,80,29.58,29.19,13,5,25,1.90
2012-5-11,61,52,45,47,42,37,93,71,43,29.94,29.51,15,6,22,0.02
2012-5-12,73,57,46,43,35,18,85,52,13,30.10,29.91,14,7,26,0.00
2012-5-13,59,50,42,48,42,-100,91,78,49,30.14,30.06,9,4,16,0.00
2012-5-14,58,51,45,49,46,43,94,84,72,30.14,30.08,7,3,14,0.00
2012-5-15,62,56,52,52,50,49,93,82,68,30.14,30.05,9,5,18,0.16
2012-5-16,57,53,51,56,52,50,95,95,93,30.05,29.79,16,6,30,1.54
2012-5-17,65,57,45,57,42,29,96,64,27,30.08,29.75,18,7,28,0.01
2012-5-18,63,54,42,42,37,32,84,55,34,30.20,30.08,12,6,18,0.00
2012-5-19,69,57,43,51,44,39,89,62,42,30.14,30.06,11,4,15,0.00
2012-5-20,71,59,45,52,44,-100,92,62,39,30.25,30.11,8,4,15,0.00
2012-5-21,69,58,46,53,47,39,93,69,39,30.29,30.09,11,4,16,0.00
2012-5-22,66,58,53,63,56,51,95,93,85,30.09,29.81,9,3,17,0.37
2012-5-23,73,65,56,64,60,51,95,85,67,30.05,29.78,11,3,18,0.03
2012-5-24,59,55,52,53,51,48,95,86,76,30.27,30.05,9,5,15,0.01
2012-5-25,57,54,51,55,52,50,95,94,90,30.28,30.06,10,5,16,0.03
2012-5-26,78,64,55,67,59,48,96,84,50,30.06,29.94,9,6,17,0.02
2012-5-27,70,60,51,49,42,-100,88,56,24,30.14,30.01,10,5,18,0.01
2012-5-28,67,59,52,55,51,48,93,76,55,30.01,29.95,8,2,10,0.10
2012-5-29,55,53,51,53,50,48,95,92,86,29.97,29.73,14,6,29,0.69
2012-5-30,63,55,51,58,53,50,96,92,83,29.74,29.65,13,4,22,0.25
2012-5-31,61,54,51,57,52,50,95,92,78,29.86,29.67,10,4,15,0.01
2012-6-1,72,59,48,51,47,40,96,68,32,30.03,29.86,10,6,17,0.01
2012-6-2,58,54,50,50,48,45,91,80,73,30.03,29.84,12,6,23,0.00
2012-6-3,52,50,49,51,47,-100,95,91,79,29.84,29.64,15,9,34,2.60
2012-6-4,54,50,48,51,48,45,95,92,87,29.75,29.60,12,7,26,1.52
2012-6-5,59,51,46,53,47,43,93,86,68,29.87,29.73,10,6,23,0.05
2012-6-6,60,53,47,52,47,43,91,80,58,29.93,29.86,7,3,15,0.03
2012-6-7,59,52,47,50,47,44,93,82,68,29.95,29.88,8,4,12,0.01
2012-6-8,57,51,47,52,49,45,95,92,84,29.88,29.69,10,5,19,0.03
2012-6-9,75,62,52,55,49,38,95,68,27,29.73,29.67,14,7,25,0.03
2012-6-11,65,64,62,55,53,51,73,68,61,30.27,30.23,9,6,14,0.00
2012-6-12,56,56,56,50,49,49,80,79,78,30.16,30.13,5,3,11,0.00
2012-6-13,58,56,54,55,53,51,93,91,88,29.98,29.92,6,4,13,0.07
2012-6-15,76,65,55,53,50,47,79,60,37,30.28,30.21,10,4,18,0.00
2012-6-16,64,56,50,52,49,46,91,77,54,30.36,30.25,9,5,16,0.00
2012-6-17,63,55,43,52,45,-100,95,74,49,30.25,30.11,10,4,15,0.00
2012-6-18,60,55,50,51,49,47,93,79,67,30.15,30.10,9,5,14,0.00
2012-6-19,64,57,50,57,53,48,95,87,74,30.12,29.96,12,5,19,0.00
2012-6-20,86,71,57,70,63,56,95,76,54,29.96,29.74,9,4,12,0.00
2012-6-21,77,70,63,66,57,52,91,65,43,29.78,29.70,8,4,13,0.01
2012-6-22,73,64,57,60,56,52,94,76,51,29.76,29.67,10,4,18,0.01
2012-6-23,64,61,57,62,59,56,95,94,90,29.82,29.71,7,3,14,0.73
2012-6-24,78,67,60,65,59,53,94,77,46,29.80,29.76,13,7,25,0.52
2012-6-25,67,62,58,61,58,53,95,86,69,29.79,29.67,12,4,20,0.56
2012-6-26,69,61,57,63,59,56,95,91,73,29.67,29.41,11,4,19,1.31
2012-6-27,66,60,57,61,57,54,93,89,78,29.55,29.39,9,5,18,0.11
2012-6-28,74,65,57,64,58,54,94,79,55,29.63,29.54,10,5,18,0.07
2012-6-29,76,64,55,62,59,53,94,84,57,29.64,29.48,10,4,19,0.17
2012-6-30,81,72,59,65,60,56,95,67,45,29.60,29.49,9,4,18,0.18
2012-7-1,81,70,61,64,60,55,92,73,41,29.73,29.60,10,4,18,0.01
2012-7-2,77,68,61,64,60,57,93,77,52,29.79,29.73,8,5,17,0.06
2012-7-3,78,68,58,63,59,56,95,74,49,29.81,29.76,7,4,12,0.01
2012-7-4,70,64,60,64,60,55,95,87,77,29.80,29.65,7,3,10,0.04
2012-7-5,80,68,60,70,64,59,96,86,61,29.78,29.61,9,3,16,0.11
2012-7-6,78,69,61,68,63,60,95,82,67,29.83,29.74,9,4,15,0.07
2012-7-7,87,74,63,67,63,57,94,70,37,29.75,29.57,13,5,20,0.02
2012-7-8,79,71,61,59,52,46,83,54,34,29.78,29.65,17,8,27,0.02
2012-7-9,77,67,57,53,48,40,80,54,27,29.90,29.78,13,6,23,0.00
2012-7-10,76,67,55,53,49,46,79,55,36,30.02,29.90,8,5,18,0.00
2012-7-11,79,68,53,62,54,50,92,63,39,30.14,30.01,8,3,14,0.00
2012-7-12,76,68,59,65,62,55,95,82,53,30.14,30.10,9,4,18,0.00
2012-7-13,84,76,69,66,62,60,77,64,49,30.08,30.06,9,5,14,0.00
2012-7-14,87,75,65,69,64,59,85,69,52,30.06,29.95,8,4,16,0.00
2012-7-15,71,66,62,64,61,58,95,86,70,30.04,29.85,10,4,15,0.00
2012-7-16,78,68,61,68,63,59,96,86,59,29.85,29.68,9,3,15,0.00
2012-7-17,71,65,62,67,63,60,95,93,86,29.73,29.53,9,2,14,0.29
2012-7-18,82,74,66,66,63,50,93,70,44,29.84,29.54,12,5,23,0.01
2012-7-19,76,68,58,51,47,44,72,50,35,29.96,29.84,15,7,24,0.00
2012-7-20,75,64,52,55,50,47,87,62,45,30.03,29.96,8,4,13,0.00
2012-7-21,73,64,51,60,55,49,95,73,51,30.04,30.01,10,3,17,0.00
2012-7-22,75,68,61,63,60,58,91,76,59,30.05,30.01,11,5,22,0.00
2012-7-23,74,68,63,65,62,59,94,82,70,30.03,29.72,10,6,18,0.00
2012-7-24,78,69,63,70,66,58,95,89,73,29.72,29.45,11,5,20,0.33
2012-7-25,79,68,57,58,54,49,87,64,36,29.70,29.56,16,8,25,0.01
2012-7-26,71,64,58,62,57,52,95,77,55,29.70,29.59,6,2,9,0.00
2012-7-27,70,65,61,66,63,59,96,93,85,29.87,29.58,6,2,9,0.14
2012-7-28,76,67,58,68,62,56,95,85,70,29.97,29.87,6,2,12,0.01
2012-7-29,68,65,61,66,63,59,95,94,91,30.01,29.92,5,1,9,0.23
2012-7-30,76,66,57,66,60,56,95,83,63,30.06,30.00,9,4,16,0.01
2012-7-31,74,66,61,64,61,58,94,82,66,30.07,29.95,11,4,19,0.01
2012-8-1,77,67,62,67,63,59,95,87,63,29.96,29.77,12,5,21,0.91
2012-8-2,73,66,63,67,64,61,95,91,80,29.87,29.81,10,3,14,0.01
2012-8-3,81,70,62,69,65,61,96,84,63,30.01,29.83,8,2,12,0.00
2012-8-4,83,73,63,67,64,61,94,75,52,30.20,30.01,6,3,10,0.00
2012-8-5,72,67,63,68,66,61,96,93,86,30.19,29.87,11,4,21,0.00
2012-8-6,81,73,65,70,62,55,96,71,44,29.91,29.80,12,6,27,0.03
2012-8-7,76,67,56,59,56,53,91,71,49,29.96,29.90,8,4,15,0.01
2012-8-8,78,69,57,66,62,55,95,81,59,29.94,29.90,9,4,15,0.00
2012-8-9,75,68,64,68,65,63,96,91,74,29.96,29.90,8,2,12,0.00
2012-8-10,67,65,63,65,63,62,96,93,87,29.98,29.90,8,4,14,0.08
2012-8-11,72,67,64,69,65,63,96,94,87,29.93,29.81,10,3,19,0.33
2012-8-12,72,67,64,71,65,-100,96,96,95,29.93,29.85,6,2,14,0.11
2012-8-13,77,70,65,70,67,63,96,88,74,29.88,29.83,9,3,12,0.04
2012-8-14,80,71,61,68,64,60,96,80,63,29.88,29.84,7,3,12,0.01
2012-8-15,78,70,61,67,64,60,96,83,55,29.88,29.84,7,3,13,0.00
2012-8-16,67,65,62,66,64,61,96,96,95,29.86,29.66,10,4,18,0.87
2012-8-17,76,68,61,65,62,59,95,82,59,29.76,29.69,11,5,18,0.23
2012-8-18,75,68,63,68,64,59,96,85,60,29.85,29.72,7,3,14,0.13
2012-8-19,76,66,58,64,59,56,96,80,52,29.91,29.83,8,4,14,0.11
2012-8-20,76,66,56,62,58,54,95,77,49,29.88,29.81,9,3,14,0.00
2012-8-21,77,67,59,63,59,56,95,79,50,30.02,29.84,7,3,11,0.00
2012-8-22,76,66,55,62,56,48,96,74,39,30.11,30.02,8,3,12,0.00
2012-8-23,78,67,57,67,60,55,96,80,53,30.08,30.00,7,2,12,0.00
2012-8-24,78,67,57,63,59,55,96,75,51,30.20,30.04,8,4,12,0.00
2012-8-25,76,65,55,61,58,54,95,81,51,30.31,30.20,8,3,11,0.00
2012-8-26,73,65,55,65,60,53,96,85,70,30.30,30.17,11,4,18,0.00
2012-8-27,76,68,61,65,62,59,95,83,63,30.16,29.85,10,5,18,0.00
2012-8-28,76,69,60,69,64,48,94,85,64,29.85,29.61,11,6,18,0.11
2012-8-29,75,63,52,56,49,43,78,61,41,29.85,29.76,15,8,23,0.01
2012-8-30,75,67,57,57,53,47,81,62,39,29.90,29.80,13,7,21,0.00
2012-8-31,77,68,64,64,59,56,91,73,51,29.81,29.68,11,6,17,0.01
2012-9-1,76,66,52,63,53,43,92,67,32,30.07,29.77,11,5,19,0.01
2012-9-2,65,56,49,59,53,47,96,89,71,30.14,30.07,6,2,10,0.17
2012-9-3,69,59,49,61,55,48,96,88,71,30.21,30.11,9,3,15,0.05
2012-9-4,70,63,58,62,59,56,95,88,72,30.12,29.90,10,4,17,0.17
2012-9-5,70,64,59,69,63,57,96,94,88,29.90,29.60,18,6,38,1.61
2012-9-6,71,63,56,62,58,55,96,85,64,29.86,29.78,10,4,17,0.01
2012-9-7,75,65,58,68,62,57,96,91,75,29.90,29.81,6,2,11,0.00
2012-9-8,69,65,61,65,63,60,96,93,84,29.90,29.62,17,8,25,0.00
2012-9-9,68,63,57,66,59,53,95,87,73,29.81,29.61,10,4,17,0.06
2012-9-10,67,58,50,53,49,46,92,74,54,29.88,29.77,14,8,25,0.01
2012-9-11,69,58,48,52,47,43,87,68,40,30.19,29.88,12,7,21,0.00
2012-9-12,71,59,46,55,50,44,95,75,42,30.30,30.19,8,3,14,0.00
2012-9-13,72,63,54,63,59,52,95,87,70,30.30,30.21,9,4,16,0.00
2012-9-14,70,64,61,63,61,60,96,91,77,30.21,30.04,8,4,15,0.00
2012-9-15,71,63,50,62,56,43,95,79,57,30.04,29.84,14,6,24,0.00
2012-9-16,63,54,47,45,41,36,89,65,36,29.96,29.88,17,8,26,0.00
2012-9-17,65,55,44,51,44,38,93,70,38,30.05,29.96,10,4,16,0.00
2012-9-18,67,61,49,61,57,47,96,86,76,30.05,29.80,17,8,29,0.01
2012-9-19,67,62,48,65,56,42,95,84,60,30.16,29.70,19,9,32,0.36
2012-9-20,64,52,41,48,44,39,94,76,47,30.24,30.13,9,4,15,0.03
2012-9-21,58,54,46,54,51,44,96,89,78,30.15,30.05,4,2,9,0.25
2012-9-22,67,60,54,63,59,53,96,95,84,30.05,29.81,8,4,14,0.27
2012-9-23,70,61,48,63,53,-100,96,80,47,29.99,29.75,10,6,17,0.01
2012-9-24,63,52,42,50,43,36,95,76,39,30.08,29.99,7,3,10,0.00
2012-9-25,64,57,44,55,49,42,95,77,51,30.09,30.02,14,6,25,0.00
2012-9-26,64,62,59,60,57,54,92,85,77,30.08,29.93,12,7,29,0.00
2012-9-27,64,57,42,60,46,38,95,71,43,30.20,29.91,12,7,21,0.00
2012-9-28,58,49,40,51,45,37,94,85,66,30.23,30.09,10,4,17,0.38
2012-9-29,59,54,49,58,53,47,96,96,94,30.09,29.80,12,6,21,0.97
2012-9-30,62,57,55,61,56,54,96,96,93,29.87,29.55,12,4,24,1.34
2012-10-1,63,58,55,55,53,51,92,84,72,29.78,29.59,13,7,26,0.04
2012-10-12,48,40,36,27,25,24,67,56,43,30.19,29.97,19,10,31,0.06
2012-10-13,48,42,34,32,25,20,84,54,34,30.32,30.19,14,7,22,0.00
2012-10-14,52,47,39,50,43,28,95,86,51,30.27,29.96,10,3,21,0.18
2012-10-15,64,62,60,59,58,56,91,87,82,29.66,29.57,13,8,25,0.02
2012-10-16,61,52,41,59,49,36,96,90,78,29.75,29.41,14,6,27,0.35
2012-10-17,58,46,35,43,36,27,94,70,30,29.95,29.75,10,5,19,0.01
2012-10-18,59,49,38,51,44,36,96,84,45,30.14,29.95,8,3,14,0.00
2012-10-19,61,55,47,59,52,46,96,92,82,30.14,29.81,16,7,34,0.25
2012-10-20,64,61,57,63,60,56,96,96,94,29.82,29.59,21,8,34,1.31
2012-10-21,60,55,50,56,48,42,96,79,58,29.71,29.60,10,5,19,0.01
2012-10-22,58,52,47,44,40,36,76,64,47,29.85,29.69,21,10,33,0.01
2012-10-23,58,48,39,38,34,31,81,59,40,30.06,29.85,16,8,25,0.00
2012-10-24,51,40,32,40,32,28,89,74,49,30.18,30.06,9,-17,14,0.00
2012-10-25,51,42,30,39,32,26,92,69,44,30.31,30.17,8,4,13,0.00
2012-10-26,56,47,36,50,44,34,96,88,73,30.22,30.08,8,3,13,0.00
2012-10-27,61,52,46,55,46,31,96,82,36,30.09,30.00,7,2,10,0.00
2012-10-28,57,51,47,49,47,44,94,86,72,30.04,29.88,15,7,26,0.00
2012-10-29,61,56,51,55,53,49,95,87,77,29.88,29.59,29,14,52,0.03
2012-10-30,60,59,57,59,58,55,96,95,92,29.72,29.57,23,12,50,0.90
2012-10-31,61,57,52,59,56,50,96,95,88,29.62,29.48,13,4,21,0.08
2012-11-1,55,51,43,51,46,40,94,85,70,29.52,29.44,8,4,13,0.05
2012-11-2,52,49,47,45,44,43,90,83,73,29.48,29.44,8,3,12,0.00
2012-11-3,47,43,42,44,40,37,91,86,81,29.56,29.47,9,6,15,0.01
2012-11-4,47,46,45,34,34,34,65,63,60,29.75,29.74,9,7,14,0.00
2012-11-6,37,29,25,20,17,14,75,60,45,30.21,30.15,5,4,9,0.00
2012-11-7,36,32,25,31,22,15,93,66,41,30.21,29.83,19,11,33,0.00
2012-11-8,40,37,32,39,36,30,95,95,94,29.84,29.61,23,16,45,0.84
2012-11-9,46,38,36,36,34,28,95,86,67,29.93,29.61,17,11,29,0.38
2012-11-10,47,37,28,25,18,14,69,47,31,30.42,30.16,17,6,26,0.00
2012-11-11,52,43,27,49,36,14,93,76,51,30.49,30.37,11,4,21,0.00
2012-11-12,60,54,49,54,50,47,94,88,66,30.40,30.23,11,6,21,0.00
2012-11-13,61,55,38,57,52,33,92,90,83,30.34,30.08,15,9,28,0.15
2012-11-14,38,34,32,29,28,26,83,77,68,30.53,30.46,13,8,22,0.14
2012-11-15,41,35,30,31,29,26,90,79,64,30.51,30.32,11,6,20,0.00
2012-11-16,42,34,29,31,28,25,88,78,59,30.42,30.29,9,4,15,0.00
2012-11-17,41,32,25,31,24,19,91,74,48,30.70,30.42,10,5,16,0.00
2012-11-18,31,29,26,26,23,20,84,77,72,30.71,30.65,4,2,7,0.00
2012-11-19,46,35,28,34,29,24,94,80,59,30.66,30.28,6,3,9,0.00
2012-11-20,48,36,28,33,28,25,94,75,43,30.28,30.14,8,3,14,0.00
2012-11-21,36,35,34,31,30,29,85,83,81,30.20,30.19,6,5,11,0.00
2012-11-22,50,43,39,41,39,37,95,86,70,30.21,30.12,5,3,12,0.00
2012-11-23,51,47,41,45,43,39,95,87,74,30.12,29.66,9,5,18,0.00
2012-11-24,49,44,32,46,37,18,89,77,53,29.66,29.38,17,7,31,0.00
2012-11-25,34,32,28,21,15,10,64,51,37,29.72,29.44,22,16,39,0.00
2012-11-26,40,33,26,21,16,10,59,50,42,30.22,29.76,18,9,29,0.00
2012-11-27,32,28,20,24,16,12,74,63,44,30.35,30.22,8,3,13,0.00
2012-11-28,33,30,24,24,20,18,84,69,54,30.27,30.09,12,6,18,0.00
2012-11-29,40,31,21,29,18,10,86,61,34,30.14,30.03,17,9,33,0.00
2012-11-30,30,20,14,20,4,-1,68,51,31,30.60,30.14,19,7,28,0.00
2012-12-1,40,23,13,35,15,6,93,73,59,30.70,30.55,13,5,20,0.02
2012-12-2,52,47,40,50,43,33,94,88,76,30.55,29.96,15,11,29,0.22
2012-12-3,51,44,33,47,39,30,94,84,63,30.32,29.94,15,8,28,0.18
2012-12-4,50,40,28,47,38,26,95,89,79,30.34,30.02,11,4,21,0.00
2012-12-5,52,43,32,48,33,19,93,68,57,30.01,29.80,18,11,31,0.17
2012-12-6,34,29,23,21,14,-100,74,56,42,30.30,30.00,19,9,31,0.01
2012-12-7,45,35,20,40,28,13,93,76,61,30.30,30.04,11,4,17,0.08
2012-12-8,42,41,39,41,40,38,96,96,94,30.04,29.84,6,3,12,0.32
2012-12-9,44,38,30,40,32,25,96,81,58,30.34,29.87,13,6,22,0.01
2012-12-10,50,41,32,49,39,25,96,92,73,30.27,29.47,13,4,24,0.46
2012-12-11,41,35,24,40,31,17,95,87,74,30.11,29.49,10,5,19,0.13
2012-12-12,24,22,21,18,17,16,82,82,78,30.14,30.10,4,4,9,0.00
2012-12-15,26,19,14,7,4,1,64,51,34,30.39,30.31,14,8,22,0.00
2012-12-16,24,18,11,11,5,-1,71,56,37,30.40,30.23,8,4,16,0.00
2012-12-17,42,32,21,37,26,12,89,80,60,30.24,29.96,13,9,25,0.03
2012-12-18,43,42,41,42,40,37,95,91,81,29.97,29.42,19,12,34,0.91
2012-12-19,43,35,32,42,34,31,95,95,95,29.98,29.41,15,11,27,0.19
2012-12-20,35,31,29,32,29,27,95,92,84,30.20,29.97,13,5,20,0.08
2012-12-21,47,38,30,45,36,28,94,90,83,30.10,29.44,20,10,38,0.26
2012-12-22,37,31,26,34,28,17,91,87,78,29.47,29.28,15,10,23,0.62
2012-12-23,34,27,22,22,15,11,75,59,48,29.76,29.47,16,10,27,0.01
2012-12-24,34,29,24,24,16,11,70,58,43,30.06,29.75,16,9,27,0.00
2012-12-25,31,24,16,19,15,11,83,68,49,30.19,30.02,8,4,15,0.00
2012-12-26,29,22,14,19,13,8,80,70,53,30.34,30.16,10,5,18,0.00
2012-12-27,34,30,26,32,28,19,94,91,75,30.16,29.40,22,14,39,0.33
2012-12-28,31,27,21,26,22,15,93,84,72,29.93,29.43,18,11,32,0.07
2012-12-29,27,22,13,24,18,9,92,85,73,29.99,29.41,15,5,27,0.01
2012-12-30,25,21,14,23,16,4,92,82,65,29.69,29.28,24,16,40,0.00
2012-12-31,30,23,14,22,12,4,73,64,52,29.85,29.65,19,10,35,0.00
2013-1-1,33,25,11,27,14,-1,81,63,43,29.80,29.57,18,11,31,0.00